sensor_id;sensor_type;location;lat;lon;timestamp;P1;durP1;ratioP1;P2;durP2;ratioP2
57389;SDS011;43217;52.694;6.214;2022-11-20T00:03:37;35.05;;;29.38;;
57389;SDS011;43217;52.694;6.214;2022-11-20T00:06:07;35.50;;;30.17;;
57389;SDS011;43217;52.694;6.214;2022-11-20T00:08:34;35.83;;;30.25;;
57389;SDS011;43217;52.694;6.214;2022-11-20T00:11:05;36.47;;;29.25;;
57389;SDS011;43217;52.694;6.214;2022-11-20T00:13:34;36.45;;;30.58;;
57389;SDS011;43217;52.694;6.214;2022-11-20T00:16:01;41.55;;;34.25;;
57389;SDS011;43217;52.694;6.214;2022-11-20T00:18:28;41.05;;;33.63;;
57389;SDS011;43217;52.694;6.214;2022-11-20T00:20:59;57.58;;;40.42;;
57389;SDS011;43217;52.694;6.214;2022-11-20T00:23:29;44.90;;;36.00;;
57389;SDS011;43217;52.694;6.214;2022-11-20T00:25:56;44.00;;;33.25;;
57389;SDS011;43217;52.694;6.214;2022-11-20T00:28:21;41.30;;;35.35;;
57389;SDS011;43217;52.694;6.214;2022-11-20T00:30:47;42.35;;;35.25;;
57389;SDS011;43217;52.694;6.214;2022-11-20T00:33:13;37.78;;;32.67;;
57389;SDS011;43217;52.694;6.214;2022-11-20T00:35:38;34.95;;;30.23;;
57389;SDS011;43217;52.694;6.214;2022-11-20T00:38:04;38.17;;;31.25;;
57389;SDS011;43217;52.694;6.214;2022-11-20T00:40:29;35.13;;;29.02;;
57389;SDS011;43217;52.694;6.214;2022-11-20T00:42:55;31.15;;;26.00;;
57389;SDS011;43217;52.694;6.214;2022-11-20T00:45:20;29.05;;;24.48;;
57389;SDS011;43217;52.694;6.214;2022-11-20T00:47:46;30.35;;;24.90;;
57389;SDS011;43217;52.694;6.214;2022-11-20T00:50:12;30.65;;;25.08;;
57389;SDS011;43217;52.694;6.214;2022-11-20T00:52:37;31.25;;;25.10;;
57389;SDS011;43217;52.694;6.214;2022-11-20T00:55:03;27.90;;;22.85;;
57389;SDS011;43217;52.694;6.214;2022-11-20T00:57:29;29.33;;;24.75;;
57389;SDS011;43217;52.694;6.214;2022-11-20T00:59:54;27.02;;;23.05;;
57389;SDS011;43217;52.694;6.214;2022-11-20T01:02:20;26.77;;;22.98;;
57389;SDS011;43217;52.694;6.214;2022-11-20T01:04:46;26.38;;;22.70;;
57389;SDS011;43217;52.694;6.214;2022-11-20T01:07:11;32.25;;;25.45;;
57389;SDS011;43217;52.694;6.214;2022-11-20T01:09:37;43.22;;;33.58;;
57389;SDS011;43217;52.694;6.214;2022-11-20T01:12:03;45.80;;;34.47;;
57389;SDS011;43217;52.694;6.214;2022-11-20T01:14:28;33.78;;;28.23;;
57389;SDS011;43217;52.694;6.214;2022-11-20T01:16:54;32.67;;;26.63;;
57389;SDS011;43217;52.694;6.214;2022-11-20T01:19:20;33.22;;;26.27;;
57389;SDS011;43217;52.694;6.214;2022-11-20T01:21:48;31.65;;;25.25;;
57389;SDS011;43217;52.694;6.214;2022-11-20T01:24:16;26.70;;;22.52;;
57389;SDS011;43217;52.694;6.214;2022-11-20T01:26:43;30.13;;;24.30;;
57389;SDS011;43217;52.694;6.214;2022-11-20T01:29:14;26.05;;;21.42;;
57389;SDS011;43217;52.694;6.214;2022-11-20T01:31:42;24.33;;;19.75;;
57389;SDS011;43217;52.694;6.214;2022-11-20T01:34:16;23.85;;;19.05;;
57389;SDS011;43217;52.694;6.214;2022-11-20T01:36:43;24.80;;;20.15;;
57389;SDS011;43217;52.694;6.214;2022-11-20T01:39:16;22.70;;;18.20;;
57389;SDS011;43217;52.694;6.214;2022-11-20T01:41:44;20.63;;;16.92;;
57389;SDS011;43217;52.694;6.214;2022-11-20T01:47:16;19.90;;;17.30;;
57389;SDS011;43217;52.694;6.214;2022-11-20T01:49:56;20.52;;;16.77;;
57389;SDS011;43217;52.694;6.214;2022-11-20T01:52:33;19.75;;;16.52;;
57389;SDS011;43217;52.694;6.214;2022-11-20T01:57:37;20.83;;;17.00;;
57389;SDS011;43217;52.694;6.214;2022-11-20T02:00:05;19.52;;;16.33;;
57389;SDS011;43217;52.694;6.214;2022-11-20T02:02:34;21.05;;;16.83;;
57389;SDS011;43217;52.694;6.214;2022-11-20T02:05:02;19.27;;;16.47;;
57389;SDS011;43217;52.694;6.214;2022-11-20T02:07:37;20.38;;;16.42;;
57389;SDS011;43217;52.694;6.214;2022-11-20T02:10:04;19.35;;;16.52;;
57389;SDS011;43217;52.694;6.214;2022-11-20T02:12:29;19.98;;;15.88;;
57389;SDS011;43217;52.694;6.214;2022-11-20T02:15:14;19.05;;;16.25;;
57389;SDS011;43217;52.694;6.214;2022-11-20T02:17:40;21.05;;;17.08;;
57389;SDS011;43217;52.694;6.214;2022-11-20T02:20:05;21.45;;;17.10;;
57389;SDS011;43217;52.694;6.214;2022-11-20T02:22:34;20.95;;;16.60;;
57389;SDS011;43217;52.694;6.214;2022-11-20T02:25:07;19.95;;;16.08;;
57389;SDS011;43217;52.694;6.214;2022-11-20T02:27:33;20.52;;;16.80;;
57389;SDS011;43217;52.694;6.214;2022-11-20T02:30:00;21.05;;;16.08;;
57389;SDS011;43217;52.694;6.214;2022-11-20T02:32:30;17.52;;;14.95;;
57389;SDS011;43217;52.694;6.214;2022-11-20T02:35:06;20.23;;;15.98;;
57389;SDS011;43217;52.694;6.214;2022-11-20T02:37:34;22.50;;;18.88;;
57389;SDS011;43217;52.694;6.214;2022-11-20T02:40:02;21.17;;;18.17;;
57389;SDS011;43217;52.694;6.214;2022-11-20T02:42:28;20.67;;;16.77;;
57389;SDS011;43217;52.694;6.214;2022-11-20T02:44:53;19.45;;;16.00;;
57389;SDS011;43217;52.694;6.214;2022-11-20T02:47:19;22.08;;;19.40;;
57389;SDS011;43217;52.694;6.214;2022-11-20T02:49:45;22.73;;;19.25;;
57389;SDS011;43217;52.694;6.214;2022-11-20T02:52:10;24.75;;;19.35;;
57389;SDS011;43217;52.694;6.214;2022-11-20T02:54:36;22.35;;;18.00;;
57389;SDS011;43217;52.694;6.214;2022-11-20T02:57:02;21.05;;;17.73;;
57389;SDS011;43217;52.694;6.214;2022-11-20T02:59:27;20.77;;;17.27;;
57389;SDS011;43217;52.694;6.214;2022-11-20T03:01:53;21.45;;;16.95;;
57389;SDS011;43217;52.694;6.214;2022-11-20T03:04:19;19.38;;;16.17;;
57389;SDS011;43217;52.694;6.214;2022-11-20T03:06:44;20.98;;;16.83;;
57389;SDS011;43217;52.694;6.214;2022-11-20T03:09:10;19.13;;;17.10;;
57389;SDS011;43217;52.694;6.214;2022-11-20T03:11:36;19.98;;;16.58;;
57389;SDS011;43217;52.694;6.214;2022-11-20T03:14:02;20.73;;;18.08;;
57389;SDS011;43217;52.694;6.214;2022-11-20T03:16:30;22.55;;;17.80;;
57389;SDS011;43217;52.694;6.214;2022-11-20T03:18:56;21.27;;;17.15;;
57389;SDS011;43217;52.694;6.214;2022-11-20T03:21:22;23.92;;;19.58;;
57389;SDS011;43217;52.694;6.214;2022-11-20T03:23:47;20.63;;;18.33;;
57389;SDS011;43217;52.694;6.214;2022-11-20T03:26:14;19.83;;;16.92;;
57389;SDS011;43217;52.694;6.214;2022-11-20T03:28:48;21.17;;;16.95;;
57389;SDS011;43217;52.694;6.214;2022-11-20T03:31:15;19.92;;;17.15;;
57389;SDS011;43217;52.694;6.214;2022-11-20T03:36:10;23.42;;;18.58;;
57389;SDS011;43217;52.694;6.214;2022-11-20T03:38:37;26.33;;;21.42;;
57389;SDS011;43217;52.694;6.214;2022-11-20T03:41:05;22.08;;;18.27;;
57389;SDS011;43217;52.694;6.214;2022-11-20T03:43:35;21.02;;;16.77;;
57389;SDS011;43217;52.694;6.214;2022-11-20T03:46:01;25.50;;;20.50;;
57389;SDS011;43217;52.694;6.214;2022-11-20T03:48:27;25.05;;;18.65;;
57389;SDS011;43217;52.694;6.214;2022-11-20T03:51:05;21.80;;;18.60;;
57389;SDS011;43217;52.694;6.214;2022-11-20T03:53:32;19.45;;;16.85;;
57389;SDS011;43217;52.694;6.214;2022-11-20T03:55:58;20.70;;;17.10;;
57389;SDS011;43217;52.694;6.214;2022-11-20T03:58:23;20.83;;;16.77;;
57389;SDS011;43217;52.694;6.214;2022-11-20T04:00:49;18.17;;;15.65;;
57389;SDS011;43217;52.694;6.214;2022-11-20T04:03:15;19.27;;;16.20;;
57389;SDS011;43217;52.694;6.214;2022-11-20T04:05:41;18.90;;;16.77;;
57389;SDS011;43217;52.694;6.214;2022-11-20T04:08:06;19.35;;;16.50;;
57389;SDS011;43217;52.694;6.214;2022-11-20T04:10:32;20.40;;;17.52;;
57389;SDS011;43217;52.694;6.214;2022-11-20T04:12:58;19.65;;;17.48;;
57389;SDS011;43217;52.694;6.214;2022-11-20T04:15:24;19.98;;;17.38;;
57389;SDS011;43217;52.694;6.214;2022-11-20T04:17:49;19.50;;;16.40;;
57389;SDS011;43217;52.694;6.214;2022-11-20T04:20:15;21.92;;;16.45;;
57389;SDS011;43217;52.694;6.214;2022-11-20T04:22:41;19.63;;;17.15;;
57389;SDS011;43217;52.694;6.214;2022-11-20T04:25:06;22.15;;;17.15;;
57389;SDS011;43217;52.694;6.214;2022-11-20T04:27:32;21.13;;;17.00;;
57389;SDS011;43217;52.694;6.214;2022-11-20T04:29:58;20.70;;;16.95;;
57389;SDS011;43217;52.694;6.214;2022-11-20T04:32:23;18.98;;;16.10;;
57389;SDS011;43217;52.694;6.214;2022-11-20T04:34:49;19.92;;;16.58;;
57389;SDS011;43217;52.694;6.214;2022-11-20T04:37:14;19.92;;;16.55;;
57389;SDS011;43217;52.694;6.214;2022-11-20T04:39:40;19.42;;;16.63;;
57389;SDS011;43217;52.694;6.214;2022-11-20T04:42:07;18.63;;;15.95;;
57389;SDS011;43217;52.694;6.214;2022-11-20T04:44:53;19.13;;;16.17;;
57389;SDS011;43217;52.694;6.214;2022-11-20T04:47:19;18.67;;;16.05;;
57389;SDS011;43217;52.694;6.214;2022-11-20T04:49:44;19.73;;;15.55;;
57389;SDS011;43217;52.694;6.214;2022-11-20T04:52:10;19.52;;;16.02;;
57389;SDS011;43217;52.694;6.214;2022-11-20T04:54:36;20.10;;;17.17;;
57389;SDS011;43217;52.694;6.214;2022-11-20T04:57:01;17.48;;;15.25;;
57389;SDS011;43217;52.694;6.214;2022-11-20T04:59:27;18.38;;;15.23;;
57389;SDS011;43217;52.694;6.214;2022-11-20T05:01:52;20.08;;;16.27;;
57389;SDS011;43217;52.694;6.214;2022-11-20T05:04:18;20.45;;;16.20;;
57389;SDS011;43217;52.694;6.214;2022-11-20T05:06:44;19.05;;;16.05;;
57389;SDS011;43217;52.694;6.214;2022-11-20T05:09:10;19.73;;;16.55;;
57389;SDS011;43217;52.694;6.214;2022-11-20T05:11:36;20.55;;;17.80;;
57389;SDS011;43217;52.694;6.214;2022-11-20T05:14:02;18.92;;;16.92;;
57389;SDS011;43217;52.694;6.214;2022-11-20T05:16:28;20.83;;;17.15;;
57389;SDS011;43217;52.694;6.214;2022-11-20T05:18:53;21.23;;;17.42;;
57389;SDS011;43217;52.694;6.214;2022-11-20T05:21:19;20.10;;;16.60;;
57389;SDS011;43217;52.694;6.214;2022-11-20T05:23:46;19.90;;;16.88;;
57389;SDS011;43217;52.694;6.214;2022-11-20T05:26:13;21.58;;;17.73;;
57389;SDS011;43217;52.694;6.214;2022-11-20T05:28:43;19.70;;;16.35;;
57389;SDS011;43217;52.694;6.214;2022-11-20T05:31:10;19.40;;;16.83;;
57389;SDS011;43217;52.694;6.214;2022-11-20T05:33:41;20.40;;;17.48;;
57389;SDS011;43217;52.694;6.214;2022-11-20T05:36:07;21.42;;;17.33;;
57389;SDS011;43217;52.694;6.214;2022-11-20T05:38:34;20.63;;;17.63;;
57389;SDS011;43217;52.694;6.214;2022-11-20T05:41:06;19.35;;;16.75;;
57389;SDS011;43217;52.694;6.214;2022-11-20T05:43:34;20.17;;;17.85;;
57389;SDS011;43217;52.694;6.214;2022-11-20T05:46:00;21.98;;;18.40;;
57389;SDS011;43217;52.694;6.214;2022-11-20T05:48:26;20.80;;;17.58;;
57389;SDS011;43217;52.694;6.214;2022-11-20T05:50:52;22.05;;;17.80;;
57389;SDS011;43217;52.694;6.214;2022-11-20T05:53:18;21.15;;;17.85;;
57389;SDS011;43217;52.694;6.214;2022-11-20T05:55:43;20.02;;;16.73;;
57389;SDS011;43217;52.694;6.214;2022-11-20T05:58:09;21.15;;;17.10;;
57389;SDS011;43217;52.694;6.214;2022-11-20T06:00:34;21.15;;;17.92;;
57389;SDS011;43217;52.694;6.214;2022-11-20T06:03:00;19.20;;;17.08;;
57389;SDS011;43217;52.694;6.214;2022-11-20T06:05:26;21.52;;;18.17;;
57389;SDS011;43217;52.694;6.214;2022-11-20T06:07:52;21.75;;;18.08;;
57389;SDS011;43217;52.694;6.214;2022-11-20T06:10:17;20.98;;;17.80;;
57389;SDS011;43217;52.694;6.214;2022-11-20T06:12:43;23.15;;;17.45;;
57389;SDS011;43217;52.694;6.214;2022-11-20T06:15:08;22.10;;;17.90;;
57389;SDS011;43217;52.694;6.214;2022-11-20T06:17:34;20.63;;;16.95;;
57389;SDS011;43217;52.694;6.214;2022-11-20T06:20:00;21.27;;;17.50;;
57389;SDS011;43217;52.694;6.214;2022-11-20T06:22:25;22.75;;;18.85;;
57389;SDS011;43217;52.694;6.214;2022-11-20T06:24:51;22.13;;;17.77;;
57389;SDS011;43217;52.694;6.214;2022-11-20T06:27:17;22.00;;;18.75;;
57389;SDS011;43217;52.694;6.214;2022-11-20T06:29:43;23.27;;;19.25;;
57389;SDS011;43217;52.694;6.214;2022-11-20T06:32:09;22.23;;;17.92;;
57389;SDS011;43217;52.694;6.214;2022-11-20T06:34:34;22.20;;;18.38;;
57389;SDS011;43217;52.694;6.214;2022-11-20T06:37:00;24.80;;;19.73;;
57389;SDS011;43217;52.694;6.214;2022-11-20T06:39:25;24.05;;;18.83;;
57389;SDS011;43217;52.694;6.214;2022-11-20T06:41:51;21.45;;;19.08;;
57389;SDS011;43217;52.694;6.214;2022-11-20T06:44:16;23.48;;;18.83;;
57389;SDS011;43217;52.694;6.214;2022-11-20T06:46:42;24.45;;;19.48;;
57389;SDS011;43217;52.694;6.214;2022-11-20T06:49:07;22.75;;;19.70;;
57389;SDS011;43217;52.694;6.214;2022-11-20T06:51:33;22.27;;;18.60;;
57389;SDS011;43217;52.694;6.214;2022-11-20T06:53:58;22.27;;;18.48;;
57389;SDS011;43217;52.694;6.214;2022-11-20T06:56:25;22.03;;;17.73;;
57389;SDS011;43217;52.694;6.214;2022-11-20T06:58:51;23.30;;;19.25;;
57389;SDS011;43217;52.694;6.214;2022-11-20T07:01:17;19.75;;;17.42;;
57389;SDS011;43217;52.694;6.214;2022-11-20T07:03:43;24.40;;;19.02;;
57389;SDS011;43217;52.694;6.214;2022-11-20T07:06:08;21.00;;;17.63;;
57389;SDS011;43217;52.694;6.214;2022-11-20T07:08:35;21.75;;;18.42;;
57389;SDS011;43217;52.694;6.214;2022-11-20T07:11:01;21.70;;;18.05;;
57389;SDS011;43217;52.694;6.214;2022-11-20T07:13:31;22.55;;;17.95;;
57389;SDS011;43217;52.694;6.214;2022-11-20T07:16:01;25.92;;;19.42;;
57389;SDS011;43217;52.694;6.214;2022-11-20T07:18:28;23.83;;;19.80;;
57389;SDS011;43217;52.694;6.214;2022-11-20T07:20:54;23.50;;;19.73;;
57389;SDS011;43217;52.694;6.214;2022-11-20T07:23:19;25.58;;;19.67;;
57389;SDS011;43217;52.694;6.214;2022-11-20T07:25:45;24.85;;;19.92;;
57389;SDS011;43217;52.694;6.214;2022-11-20T07:28:10;26.00;;;21.02;;
57389;SDS011;43217;52.694;6.214;2022-11-20T07:30:36;26.33;;;22.35;;
57389;SDS011;43217;52.694;6.214;2022-11-20T07:33:02;25.92;;;22.35;;
57389;SDS011;43217;52.694;6.214;2022-11-20T07:35:33;26.20;;;21.00;;
57389;SDS011;43217;52.694;6.214;2022-11-20T07:37:59;25.65;;;21.10;;
57389;SDS011;43217;52.694;6.214;2022-11-20T07:40:24;31.65;;;26.25;;
57389;SDS011;43217;52.694;6.214;2022-11-20T07:42:51;39.33;;;35.10;;
57389;SDS011;43217;52.694;6.214;2022-11-20T07:45:19;50.50;;;41.58;;
57389;SDS011;43217;52.694;6.214;2022-11-20T07:47:45;27.90;;;24.17;;
57389;SDS011;43217;52.694;6.214;2022-11-20T07:50:11;27.05;;;22.23;;
57389;SDS011;43217;52.694;6.214;2022-11-20T07:52:37;24.52;;;20.67;;
57389;SDS011;43217;52.694;6.214;2022-11-20T07:55:03;22.88;;;19.98;;
57389;SDS011;43217;52.694;6.214;2022-11-20T07:57:29;25.25;;;21.30;;
57389;SDS011;43217;52.694;6.214;2022-11-20T07:59:55;24.23;;;19.58;;
57389;SDS011;43217;52.694;6.214;2022-11-20T08:02:20;25.15;;;20.17;;
57389;SDS011;43217;52.694;6.214;2022-11-20T08:04:46;24.67;;;20.63;;
57389;SDS011;43217;52.694;6.214;2022-11-20T08:07:12;23.35;;;19.70;;
57389;SDS011;43217;52.694;6.214;2022-11-20T08:09:37;22.77;;;19.63;;
57389;SDS011;43217;52.694;6.214;2022-11-20T08:12:03;24.05;;;20.35;;
57389;SDS011;43217;52.694;6.214;2022-11-20T08:14:47;22.67;;;20.25;;
57389;SDS011;43217;52.694;6.214;2022-11-20T08:17:12;26.13;;;21.23;;
57389;SDS011;43217;52.694;6.214;2022-11-20T08:19:38;52.22;;;32.85;;
57389;SDS011;43217;52.694;6.214;2022-11-20T08:22:04;58.47;;;36.60;;
57389;SDS011;43217;52.694;6.214;2022-11-20T08:24:29;34.72;;;24.92;;
57389;SDS011;43217;52.694;6.214;2022-11-20T08:26:57;34.30;;;27.30;;
57389;SDS011;43217;52.694;6.214;2022-11-20T08:29:24;27.83;;;23.20;;
57389;SDS011;43217;52.694;6.214;2022-11-20T08:31:50;24.77;;;21.75;;
57389;SDS011;43217;52.694;6.214;2022-11-20T08:34:16;25.10;;;21.15;;
57389;SDS011;43217;52.694;6.214;2022-11-20T08:36:41;25.00;;;20.73;;
57389;SDS011;43217;52.694;6.214;2022-11-20T08:39:07;25.23;;;21.15;;
57389;SDS011;43217;52.694;6.214;2022-11-20T08:41:33;26.80;;;21.50;;
57389;SDS011;43217;52.694;6.214;2022-11-20T08:43:59;27.10;;;20.95;;
57389;SDS011;43217;52.694;6.214;2022-11-20T08:46:27;23.50;;;20.73;;
57389;SDS011;43217;52.694;6.214;2022-11-20T08:48:58;25.92;;;21.15;;
57389;SDS011;43217;52.694;6.214;2022-11-20T08:51:23;26.25;;;22.23;;
57389;SDS011;43217;52.694;6.214;2022-11-20T08:53:49;30.75;;;23.15;;
57389;SDS011;43217;52.694;6.214;2022-11-20T08:56:15;27.23;;;23.02;;
57389;SDS011;43217;52.694;6.214;2022-11-20T08:58:41;27.23;;;23.52;;
57389;SDS011;43217;52.694;6.214;2022-11-20T09:01:07;24.67;;;21.55;;
57389;SDS011;43217;52.694;6.214;2022-11-20T09:03:33;25.27;;;21.38;;
57389;SDS011;43217;52.694;6.214;2022-11-20T09:06:01;22.20;;;19.73;;
57389;SDS011;43217;52.694;6.214;2022-11-20T09:08:31;24.90;;;20.70;;
57389;SDS011;43217;52.694;6.214;2022-11-20T09:10:58;25.83;;;22.50;;
57389;SDS011;43217;52.694;6.214;2022-11-20T09:13:24;24.02;;;20.73;;
57389;SDS011;43217;52.694;6.214;2022-11-20T09:15:58;23.30;;;19.75;;
57389;SDS011;43217;52.694;6.214;2022-11-20T09:18:26;25.35;;;22.08;;
57389;SDS011;43217;52.694;6.214;2022-11-20T09:20:56;22.40;;;19.20;;
57389;SDS011;43217;52.694;6.214;2022-11-20T09:23:23;22.63;;;19.98;;
57389;SDS011;43217;52.694;6.214;2022-11-20T09:25:49;24.13;;;21.42;;
57389;SDS011;43217;52.694;6.214;2022-11-20T09:28:15;25.13;;;21.25;;
57389;SDS011;43217;52.694;6.214;2022-11-20T09:30:41;23.70;;;20.20;;
57389;SDS011;43217;52.694;6.214;2022-11-20T09:33:06;22.10;;;19.55;;
57389;SDS011;43217;52.694;6.214;2022-11-20T09:35:32;21.95;;;19.17;;
57389;SDS011;43217;52.694;6.214;2022-11-20T09:37:58;21.48;;;18.50;;
57389;SDS011;43217;52.694;6.214;2022-11-20T09:40:28;24.15;;;19.85;;
57389;SDS011;43217;52.694;6.214;2022-11-20T09:45:44;20.83;;;17.80;;
57389;SDS011;43217;52.694;6.214;2022-11-20T09:51:00;20.30;;;17.48;;
57389;SDS011;43217;52.694;6.214;2022-11-20T09:56:19;20.10;;;17.92;;
57389;SDS011;43217;52.694;6.214;2022-11-20T09:58:47;22.27;;;18.65;;
57389;SDS011;43217;52.694;6.214;2022-11-20T10:01:16;20.48;;;17.50;;
57389;SDS011;43217;52.694;6.214;2022-11-20T10:04:04;19.83;;;17.00;;
57389;SDS011;43217;52.694;6.214;2022-11-20T10:06:44;20.00;;;17.15;;
57389;SDS011;43217;52.694;6.214;2022-11-20T10:18:01;20.00;;;16.75;;
57389;SDS011;43217;52.694;6.214;2022-11-20T10:29:17;15.90;;;13.93;;
57389;SDS011;43217;52.694;6.214;2022-11-20T10:32:31;15.27;;;13.32;;
57389;SDS011;43217;52.694;6.214;2022-11-20T10:37:29;16.02;;;13.63;;
57389;SDS011;43217;52.694;6.214;2022-11-20T10:40:19;15.63;;;13.93;;
57389;SDS011;43217;52.694;6.214;2022-11-20T10:42:50;16.35;;;13.75;;
57389;SDS011;43217;52.694;6.214;2022-11-20T10:50:57;14.50;;;12.75;;
57389;SDS011;43217;52.694;6.214;2022-11-20T10:53:47;15.45;;;13.70;;
57389;SDS011;43217;52.694;6.214;2022-11-20T11:02:21;16.80;;;14.88;;
57389;SDS011;43217;52.694;6.214;2022-11-20T11:04:54;17.02;;;15.20;;
57389;SDS011;43217;52.694;6.214;2022-11-20T11:07:30;17.10;;;15.07;;
57389;SDS011;43217;52.694;6.214;2022-11-20T11:10:01;17.17;;;15.20;;
57389;SDS011;43217;52.694;6.214;2022-11-20T11:12:27;17.92;;;15.50;;
57389;SDS011;43217;52.694;6.214;2022-11-20T11:14:55;17.08;;;15.27;;
57389;SDS011;43217;52.694;6.214;2022-11-20T11:17:32;17.02;;;15.25;;
57389;SDS011;43217;52.694;6.214;2022-11-20T11:20:03;19.30;;;17.20;;
57389;SDS011;43217;52.694;6.214;2022-11-20T11:22:42;16.95;;;14.75;;
57389;SDS011;43217;52.694;6.214;2022-11-20T11:25:26;16.92;;;15.15;;
57389;SDS011;43217;52.694;6.214;2022-11-20T11:30:43;17.27;;;15.30;;
57389;SDS011;43217;52.694;6.214;2022-11-20T11:33:20;17.10;;;15.30;;
57389;SDS011;43217;52.694;6.214;2022-11-20T11:35:49;20.13;;;15.68;;
57389;SDS011;43217;52.694;6.214;2022-11-20T11:38:23;17.55;;;15.68;;
57389;SDS011;43217;52.694;6.214;2022-11-20T11:40:55;16.65;;;14.88;;
57389;SDS011;43217;52.694;6.214;2022-11-20T11:43:23;16.67;;;14.70;;
57389;SDS011;43217;52.694;6.214;2022-11-20T11:49:11;16.02;;;13.90;;
57389;SDS011;43217;52.694;6.214;2022-11-20T11:57:10;15.70;;;14.00;;
57389;SDS011;43217;52.694;6.214;2022-11-20T12:05:29;15.10;;;13.52;;
57389;SDS011;43217;52.694;6.214;2022-11-20T12:10:56;18.15;;;15.30;;
57389;SDS011;43217;52.694;6.214;2022-11-20T12:13:26;22.15;;;18.75;;
57389;SDS011;43217;52.694;6.214;2022-11-20T12:16:14;17.88;;;14.82;;
57389;SDS011;43217;52.694;6.214;2022-11-20T12:18:42;22.23;;;16.42;;
57389;SDS011;43217;52.694;6.214;2022-11-20T12:27:04;20.70;;;17.27;;
57389;SDS011;43217;52.694;6.214;2022-11-20T12:38:41;17.50;;;14.20;;
57389;SDS011;43217;52.694;6.214;2022-11-20T12:41:05;16.83;;;14.35;;
57389;SDS011;43217;52.694;6.214;2022-11-20T12:49:42;20.73;;;17.45;;
57389;SDS011;43217;52.694;6.214;2022-11-20T12:52:16;21.65;;;17.35;;
57389;SDS011;43217;52.694;6.214;2022-11-20T12:57:47;20.92;;;17.58;;
57389;SDS011;43217;52.694;6.214;2022-11-20T13:05:18;20.50;;;17.60;;
57389;SDS011;43217;52.694;6.214;2022-11-20T13:07:57;16.83;;;14.85;;
57389;SDS011;43217;52.694;6.214;2022-11-20T13:10:35;16.58;;;14.88;;
57389;SDS011;43217;52.694;6.214;2022-11-20T13:13:17;18.15;;;15.82;;
57389;SDS011;43217;52.694;6.214;2022-11-20T13:16:18;18.92;;;16.83;;
57389;SDS011;43217;52.694;6.214;2022-11-20T13:18:49;17.20;;;15.40;;
57389;SDS011;43217;52.694;6.214;2022-11-20T13:21:20;18.48;;;16.52;;
57389;SDS011;43217;52.694;6.214;2022-11-20T13:23:47;17.35;;;15.55;;
57389;SDS011;43217;52.694;6.214;2022-11-20T13:26:17;17.88;;;15.98;;
57389;SDS011;43217;52.694;6.214;2022-11-20T13:28:46;22.23;;;18.08;;
57389;SDS011;43217;52.694;6.214;2022-11-20T13:31:29;22.98;;;17.38;;
57389;SDS011;43217;52.694;6.214;2022-11-20T13:34:01;18.95;;;16.95;;
57389;SDS011;43217;52.694;6.214;2022-11-20T13:36:29;22.13;;;19.05;;
57389;SDS011;43217;52.694;6.214;2022-11-20T13:38:57;18.73;;;16.73;;
57389;SDS011;43217;52.694;6.214;2022-11-20T13:41:33;17.25;;;15.10;;
57389;SDS011;43217;52.694;6.214;2022-11-20T13:46:35;19.20;;;17.13;;
57389;SDS011;43217;52.694;6.214;2022-11-20T13:49:06;19.42;;;17.38;;
57389;SDS011;43217;52.694;6.214;2022-11-20T13:52:20;19.60;;;17.40;;
57389;SDS011;43217;52.694;6.214;2022-11-20T13:57:42;24.63;;;21.48;;
57389;SDS011;43217;52.694;6.214;2022-11-20T14:00:19;19.35;;;17.42;;
57389;SDS011;43217;52.694;6.214;2022-11-20T14:05:31;23.55;;;20.40;;
57389;SDS011;43217;52.694;6.214;2022-11-20T14:08:04;22.17;;;18.77;;
57389;SDS011;43217;52.694;6.214;2022-11-20T14:10:31;19.65;;;17.55;;
57389;SDS011;43217;52.694;6.214;2022-11-20T14:12:57;21.83;;;18.42;;
57389;SDS011;43217;52.694;6.214;2022-11-20T14:15:30;19.77;;;16.88;;
57389;SDS011;43217;52.694;6.214;2022-11-20T14:17:57;18.83;;;16.85;;
57389;SDS011;43217;52.694;6.214;2022-11-20T14:20:24;18.70;;;16.27;;
57389;SDS011;43217;52.694;6.214;2022-11-20T14:22:53;19.15;;;17.17;;
57389;SDS011;43217;52.694;6.214;2022-11-20T14:25:21;20.10;;;17.98;;
57389;SDS011;43217;52.694;6.214;2022-11-20T14:27:52;20.27;;;17.98;;
57389;SDS011;43217;52.694;6.214;2022-11-20T14:30:27;20.50;;;18.40;;
57389;SDS011;43217;52.694;6.214;2022-11-20T14:32:55;19.45;;;17.45;;
57389;SDS011;43217;52.694;6.214;2022-11-20T14:35:26;20.85;;;18.08;;
57389;SDS011;43217;52.694;6.214;2022-11-20T14:37:54;22.98;;;20.58;;
57389;SDS011;43217;52.694;6.214;2022-11-20T14:43:00;27.60;;;22.95;;
57389;SDS011;43217;52.694;6.214;2022-11-20T14:45:25;23.73;;;20.58;;
57389;SDS011;43217;52.694;6.214;2022-11-20T14:47:52;23.42;;;20.90;;
57389;SDS011;43217;52.694;6.214;2022-11-20T14:50:23;23.13;;;20.50;;
57389;SDS011;43217;52.694;6.214;2022-11-20T14:52:54;22.15;;;19.85;;
57389;SDS011;43217;52.694;6.214;2022-11-20T14:55:26;21.27;;;19.10;;
57389;SDS011;43217;52.694;6.214;2022-11-20T14:58:02;23.00;;;19.90;;
57389;SDS011;43217;52.694;6.214;2022-11-20T15:00:28;24.23;;;21.63;;
57389;SDS011;43217;52.694;6.214;2022-11-20T15:02:55;23.25;;;20.92;;
57389;SDS011;43217;52.694;6.214;2022-11-20T15:05:23;23.20;;;20.35;;
57389;SDS011;43217;52.694;6.214;2022-11-20T15:07:52;21.65;;;19.40;;
57389;SDS011;43217;52.694;6.214;2022-11-20T15:10:30;24.42;;;21.00;;
57389;SDS011;43217;52.694;6.214;2022-11-20T15:13:00;22.33;;;19.92;;
57389;SDS011;43217;52.694;6.214;2022-11-20T15:15:29;23.48;;;21.02;;
57389;SDS011;43217;52.694;6.214;2022-11-20T15:17:58;21.35;;;19.05;;
57389;SDS011;43217;52.694;6.214;2022-11-20T15:20:26;21.58;;;19.40;;
57389;SDS011;43217;52.694;6.214;2022-11-20T15:22:56;22.20;;;19.90;;
57389;SDS011;43217;52.694;6.214;2022-11-20T15:25:22;21.90;;;19.70;;
57389;SDS011;43217;52.694;6.214;2022-11-20T15:27:50;21.77;;;19.27;;
57389;SDS011;43217;52.694;6.214;2022-11-20T15:30:20;21.73;;;19.23;;
57389;SDS011;43217;52.694;6.214;2022-11-20T15:32:46;24.35;;;20.40;;
57389;SDS011;43217;52.694;6.214;2022-11-20T15:35:13;21.40;;;19.10;;
57389;SDS011;43217;52.694;6.214;2022-11-20T15:37:39;29.38;;;25.17;;
57389;SDS011;43217;52.694;6.214;2022-11-20T15:40:05;24.95;;;22.35;;
57389;SDS011;43217;52.694;6.214;2022-11-20T15:42:32;29.48;;;26.33;;
57389;SDS011;43217;52.694;6.214;2022-11-20T15:44:58;30.08;;;27.00;;
57389;SDS011;43217;52.694;6.214;2022-11-20T15:47:28;30.50;;;25.63;;
57389;SDS011;43217;52.694;6.214;2022-11-20T15:49:59;31.45;;;28.05;;
57389;SDS011;43217;52.694;6.214;2022-11-20T15:52:25;27.77;;;24.05;;
57389;SDS011;43217;52.694;6.214;2022-11-20T15:54:50;28.38;;;24.38;;
57389;SDS011;43217;52.694;6.214;2022-11-20T15:57:16;28.77;;;25.65;;
57389;SDS011;43217;52.694;6.214;2022-11-20T15:59:41;28.17;;;25.15;;
57389;SDS011;43217;52.694;6.214;2022-11-20T16:02:11;29.48;;;26.48;;
57389;SDS011;43217;52.694;6.214;2022-11-20T16:04:37;25.52;;;22.77;;
57389;SDS011;43217;52.694;6.214;2022-11-20T16:07:03;26.00;;;23.10;;
57389;SDS011;43217;52.694;6.214;2022-11-20T16:09:33;28.88;;;25.88;;
57389;SDS011;43217;52.694;6.214;2022-11-20T16:11:59;28.70;;;25.02;;
57389;SDS011;43217;52.694;6.214;2022-11-20T16:14:25;31.77;;;28.38;;
57389;SDS011;43217;52.694;6.214;2022-11-20T16:17:10;32.72;;;29.23;;
57389;SDS011;43217;52.694;6.214;2022-11-20T16:19:37;32.58;;;29.13;;